sensor_id;sensor_type;location;lat;lon;timestamp;pressure;altitude;pressure_sealevel;temperature;humidity
5126;BME280;63008;53.112;8.896;2023-03-20T00:00:50;101681.19;;;10.48;88.27
5126;BME280;63008;53.112;8.896;2023-03-20T00:02:51;101683.28;;;10.51;88.09
5126;BME280;63008;53.112;8.896;2023-03-20T00:04:52;101682.28;;;10.47;88.26
5126;BME280;63008;53.112;8.896;2023-03-20T00:06:53;101692.31;;;10.51;88.07
5126;BME280;63008;53.112;8.896;2023-03-20T00:08:54;101682.47;;;10.50;88.05
5126;BME280;63008;53.112;8.896;2023-03-20T00:10:57;101680.34;;;10.47;88.05
5126;BME280;63008;53.112;8.896;2023-03-20T00:12:58;101672.50;;;10.54;87.78
5126;BME280;63008;53.112;8.896;2023-03-20T00:15:02;101686.22;;;10.54;87.72
5126;BME280;63008;53.112;8.896;2023-03-20T00:17:10;101682.88;;;10.57;87.49
5126;BME280;63008;53.112;8.896;2023-03-20T00:19:24;101686.59;;;10.61;87.77
5126;BME280;63008;53.112;8.896;2023-03-20T00:21:29;101690.78;;;10.59;87.28
5126;BME280;63008;53.112;8.896;2023-03-20T00:23:31;101683.88;;;10.61;87.54
5126;BME280;63008;53.112;8.896;2023-03-20T00:25:32;101683.88;;;10.61;87.18
5126;BME280;63008;53.112;8.896;2023-03-20T00:27:33;101688.44;;;10.66;86.68
5126;BME280;63008;53.112;8.896;2023-03-20T00:29:34;101689.03;;;10.63;86.57
5126;BME280;63008;53.112;8.896;2023-03-20T00:31:37;101685.97;;;10.64;86.22
5126;BME280;63008;53.112;8.896;2023-03-20T00:33:38;101683.25;;;10.64;86.28
5126;BME280;63008;53.112;8.896;2023-03-20T00:35:39;101681.13;;;10.61;86.33
5126;BME280;63008;53.112;8.896;2023-03-20T00:37:41;101687.09;;;10.63;86.25
5126;BME280;63008;53.112;8.896;2023-03-20T00:39:42;101684.16;;;10.60;86.03
5126;BME280;63008;53.112;8.896;2023-03-20T00:41:55;101686.28;;;10.63;85.56
5126;BME280;63008;53.112;8.896;2023-03-20T00:44:00;101680.50;;;10.64;85.43
5126;BME280;63008;53.112;8.896;2023-03-20T00:46:02;101687.81;;;10.69;85.24
5126;BME280;63008;53.112;8.896;2023-03-20T00:48:03;101686.28;;;10.63;85.11
5126;BME280;63008;53.112;8.896;2023-03-20T00:50:12;101690.34;;;10.65;84.29
5126;BME280;63008;53.112;8.896;2023-03-20T00:52:17;101691.97;;;10.66;84.17
5126;BME280;63008;53.112;8.896;2023-03-20T00:54:18;101688.84;;;10.59;84.44
5126;BME280;63008;53.112;8.896;2023-03-20T00:56:41;101690.16;;;10.62;84.44
5126;BME280;63008;53.112;8.896;2023-03-20T00:58:42;101685.00;;;10.60;84.19
5126;BME280;63008;53.112;8.896;2023-03-20T01:00:44;101699.84;;;10.59;84.19
5126;BME280;63008;53.112;8.896;2023-03-20T01:02:46;101697.38;;;10.58;84.37
5126;BME280;63008;53.112;8.896;2023-03-20T01:04:52;101690.28;;;10.57;84.92
5126;BME280;63008;53.112;8.896;2023-03-20T01:06:53;101702.19;;;10.52;84.94
5126;BME280;63008;53.112;8.896;2023-03-20T01:08:54;101693.44;;;10.50;84.96
5126;BME280;63008;53.112;8.896;2023-03-20T01:10:57;101691.03;;;10.49;85.25
5126;BME280;63008;53.112;8.896;2023-03-20T01:13:00;101701.19;;;10.48;85.28
5126;BME280;63008;53.112;8.896;2023-03-20T01:15:01;101692.75;;;10.45;85.72
5126;BME280;63008;53.112;8.896;2023-03-20T01:17:03;101699.06;;;10.45;85.82
5126;BME280;63008;53.112;8.896;2023-03-20T01:19:04;101697.56;;;10.39;86.20
5126;BME280;63008;53.112;8.896;2023-03-20T01:21:05;101700.09;;;10.36;86.33
5126;BME280;63008;53.112;8.896;2023-03-20T01:23:06;101706.28;;;10.41;85.67
5126;BME280;63008;53.112;8.896;2023-03-20T01:25:07;101702.94;;;10.44;85.75
5126;BME280;63008;53.112;8.896;2023-03-20T01:27:18;101707.72;;;10.39;86.04
5126;BME280;63008;53.112;8.896;2023-03-20T01:29:24;101700.91;;;10.36;86.21
5126;BME280;63008;53.112;8.896;2023-03-20T01:31:27;101704.69;;;10.40;86.14
5126;BME280;63008;53.112;8.896;2023-03-20T01:33:28;101711.28;;;10.39;86.22
5126;BME280;63008;53.112;8.896;2023-03-20T01:35:30;101716.69;;;10.31;86.67
5126;BME280;63008;53.112;8.896;2023-03-20T01:37:31;101722.97;;;10.31;86.98
5126;BME280;63008;53.112;8.896;2023-03-20T01:39:34;101724.19;;;10.39;86.92
5126;BME280;63008;53.112;8.896;2023-03-20T01:41:36;101722.78;;;10.28;87.43
5126;BME280;63008;53.112;8.896;2023-03-20T01:43:37;101721.06;;;10.18;88.02
5126;BME280;63008;53.112;8.896;2023-03-20T01:45:38;101720.97;;;10.10;88.42
5126;BME280;63008;53.112;8.896;2023-03-20T01:47:42;101715.81;;;10.08;88.65
5126;BME280;63008;53.112;8.896;2023-03-20T01:50:20;101724.84;;;10.09;88.62
5126;BME280;63008;53.112;8.896;2023-03-20T01:52:26;101730.53;;;10.12;88.67
5126;BME280;63008;53.112;8.896;2023-03-20T01:54:31;101714.06;;;9.99;89.16
5126;BME280;63008;53.112;8.896;2023-03-20T01:56:43;101718.63;;;10.03;89.40
5126;BME280;63008;53.112;8.896;2023-03-20T01:58:51;101728.97;;;9.93;89.60
5126;BME280;63008;53.112;8.896;2023-03-20T02:00:54;101724.44;;;9.88;89.71
5126;BME280;63008;53.112;8.896;2023-03-20T02:02:55;101727.75;;;9.85;90.15
5126;BME280;63008;53.112;8.896;2023-03-20T02:05:01;101723.81;;;9.91;89.73
5126;BME280;63008;53.112;8.896;2023-03-20T02:07:04;101713.75;;;9.87;89.29
5126;BME280;63008;53.112;8.896;2023-03-20T02:09:07;101716.19;;;9.88;88.76
5126;BME280;63008;53.112;8.896;2023-03-20T02:11:09;101730.00;;;9.83;87.77
5126;BME280;63008;53.112;8.896;2023-03-20T02:13:12;101712.94;;;9.73;87.91
5126;BME280;63008;53.112;8.896;2023-03-20T02:15:13;101720.53;;;9.76;88.00
5126;BME280;63008;53.112;8.896;2023-03-20T02:17:16;101721.38;;;9.76;87.41
5126;BME280;63008;53.112;8.896;2023-03-20T02:19:26;101728.25;;;9.74;87.34
5126;BME280;63008;53.112;8.896;2023-03-20T02:21:51;101714.56;;;9.74;87.36
5126;BME280;63008;53.112;8.896;2023-03-20T02:29:28;101720.97;;;9.69;88.19
5126;BME280;63008;53.112;8.896;2023-03-20T02:36:53;101714.78;;;9.64;88.12
5126;BME280;63008;53.112;8.896;2023-03-20T02:39:23;101726.94;;;9.58;88.86
5126;BME280;63008;53.112;8.896;2023-03-20T02:43:59;101730.50;;;9.58;88.60
5126;BME280;63008;53.112;8.896;2023-03-20T02:46:19;101725.81;;;9.45;89.37
5126;BME280;63008;53.112;8.896;2023-03-20T02:48:38;101710.47;;;9.44;89.15
5126;BME280;63008;53.112;8.896;2023-03-20T02:51:11;101715.97;;;9.44;89.08
5126;BME280;63008;53.112;8.896;2023-03-20T02:54:09;101697.50;;;9.50;89.05
5126;BME280;63008;53.112;8.896;2023-03-20T02:56:16;101706.84;;;9.49;87.73
5126;BME280;63008;53.112;8.896;2023-03-20T02:58:23;101699.41;;;9.49;87.21
5126;BME280;63008;53.112;8.896;2023-03-20T03:00:37;101689.91;;;9.47;87.03
5126;BME280;63008;53.112;8.896;2023-03-20T03:02:47;101692.81;;;9.50;86.88
5126;BME280;63008;53.112;8.896;2023-03-20T03:04:52;101689.78;;;9.52;86.07
5126;BME280;63008;53.112;8.896;2023-03-20T03:06:55;101693.66;;;9.51;86.16
5126;BME280;63008;53.112;8.896;2023-03-20T03:09:13;101690.69;;;9.47;85.41
5126;BME280;63008;53.112;8.896;2023-03-20T03:11:17;101686.16;;;9.56;84.51
5126;BME280;63008;53.112;8.896;2023-03-20T03:13:21;101690.72;;;9.61;84.34
5126;BME280;63008;53.112;8.896;2023-03-20T03:15:33;101687.06;;;9.52;84.43
5126;BME280;63008;53.112;8.896;2023-03-20T03:17:36;101682.97;;;9.49;84.46
5126;BME280;63008;53.112;8.896;2023-03-20T03:19:41;101682.41;;;9.52;84.35
5126;BME280;63008;53.112;8.896;2023-03-20T03:21:45;101678.22;;;9.55;83.89
5126;BME280;63008;53.112;8.896;2023-03-20T03:23:48;101676.50;;;9.59;83.62
5126;BME280;63008;53.112;8.896;2023-03-20T03:25:49;101676.50;;;9.59;83.57
5126;BME280;63008;53.112;8.896;2023-03-20T03:30:12;101674.16;;;9.66;83.32
5126;BME280;63008;53.112;8.896;2023-03-20T03:32:33;101669.59;;;9.61;83.77
5126;BME280;63008;53.112;8.896;2023-03-20T03:34:35;101663.81;;;9.63;83.48
5126;BME280;63008;53.112;8.896;2023-03-20T03:36:55;101664.84;;;9.67;82.80
5126;BME280;63008;53.112;8.896;2023-03-20T03:39:09;101652.88;;;9.63;83.12
5126;BME280;63008;53.112;8.896;2023-03-20T03:41:19;101658.97;;;9.60;83.11
5126;BME280;63008;53.112;8.896;2023-03-20T03:43:30;101659.66;;;9.52;83.33
5126;BME280;63008;53.112;8.896;2023-03-20T03:45:35;101655.28;;;9.51;83.49
5126;BME280;63008;53.112;8.896;2023-03-20T03:47:44;101651.66;;;9.55;83.57
5126;BME280;63008;53.112;8.896;2023-03-20T03:49:51;101653.78;;;9.58;83.08
5126;BME280;63008;53.112;8.896;2023-03-20T03:52:00;101653.78;;;9.58;83.31
5126;BME280;63008;53.112;8.896;2023-03-20T03:54:08;101654.16;;;9.65;83.10
5126;BME280;63008;53.112;8.896;2023-03-20T03:56:11;101649.00;;;9.64;83.35
5126;BME280;63008;53.112;8.896;2023-03-20T03:58:20;101639.78;;;9.60;83.46
5126;BME280;63008;53.112;8.896;2023-03-20T04:00:25;101650.81;;;9.55;84.00
5126;BME280;63008;53.112;8.896;2023-03-20T04:02:27;101647.47;;;9.58;83.37
5126;BME280;63008;53.112;8.896;2023-03-20T04:04:30;101651.41;;;9.65;82.97
5126;BME280;63008;53.112;8.896;2023-03-20T04:06:32;101650.91;;;9.63;83.10
5126;BME280;63008;53.112;8.896;2023-03-20T04:08:33;101648.59;;;9.57;83.73
5126;BME280;63008;53.112;8.896;2023-03-20T04:10:34;101657.91;;;9.56;83.71
5126;BME280;63008;53.112;8.896;2023-03-20T04:12:38;101655.06;;;9.47;84.38
5126;BME280;63008;53.112;8.896;2023-03-20T04:14:39;101658.94;;;9.46;84.25
5126;BME280;63008;53.112;8.896;2023-03-20T04:16:40;101655.47;;;9.41;84.81
5126;BME280;63008;53.112;8.896;2023-03-20T04:18:42;101663.00;;;9.49;84.37
5126;BME280;63008;53.112;8.896;2023-03-20T04:20:44;101654.06;;;9.43;84.80
5126;BME280;63008;53.112;8.896;2023-03-20T04:22:46;101656.19;;;9.46;84.90
5126;BME280;63008;53.112;8.896;2023-03-20T04:24:47;101657.94;;;9.42;85.28
5126;BME280;63008;53.112;8.896;2023-03-20T04:26:48;101649.19;;;9.40;85.53
5126;BME280;63008;53.112;8.896;2023-03-20T04:28:49;101655.19;;;9.42;85.41
5126;BME280;63008;53.112;8.896;2023-03-20T04:30:52;101656.69;;;9.35;85.96
5126;BME280;63008;53.112;8.896;2023-03-20T04:32:53;101654.56;;;9.32;86.25
5126;BME280;63008;53.112;8.896;2023-03-20T04:34:54;101653.47;;;9.33;86.30
5126;BME280;63008;53.112;8.896;2023-03-20T04:36:55;101652.22;;;9.25;86.68
5126;BME280;63008;53.112;8.896;2023-03-20T04:38:56;101647.38;;;9.22;87.08
5126;BME280;63008;53.112;8.896;2023-03-20T04:40:57;101648.69;;;9.25;87.11
5126;BME280;63008;53.112;8.896;2023-03-20T04:42:58;101648.28;;;9.31;87.15
5126;BME280;63008;53.112;8.896;2023-03-20T04:44:59;101637.22;;;9.36;86.78
5126;BME280;63008;53.112;8.896;2023-03-20T04:47:00;101639.88;;;9.28;87.04
5126;BME280;63008;53.112;8.896;2023-03-20T04:49:01;101639.94;;;9.23;87.57
5126;BME280;63008;53.112;8.896;2023-03-20T04:51:02;101638.13;;;9.18;87.91
5126;BME280;63008;53.112;8.896;2023-03-20T04:53:04;101630.50;;;9.15;87.97
5126;BME280;63008;53.112;8.896;2023-03-20T04:55:05;101636.19;;;9.19;88.01
5126;BME280;63008;53.112;8.896;2023-03-20T04:57:06;101633.97;;;9.21;88.10
5126;BME280;63008;53.112;8.896;2023-03-20T04:59:07;101633.97;;;9.21;88.20
5126;BME280;63008;53.112;8.896;2023-03-20T05:01:08;101635.06;;;9.20;88.48
5126;BME280;63008;53.112;8.896;2023-03-20T05:03:09;101640.88;;;9.18;88.42
5126;BME280;63008;53.112;8.896;2023-03-20T05:05:10;101641.56;;;9.24;88.31
5126;BME280;63008;53.112;8.896;2023-03-20T05:07:11;101651.00;;;9.31;87.85
5126;BME280;63008;53.112;8.896;2023-03-20T05:09:12;101644.22;;;9.29;88.23
5126;BME280;63008;53.112;8.896;2023-03-20T05:11:13;101646.66;;;9.30;87.82
5126;BME280;63008;53.112;8.896;2023-03-20T05:13:14;101651.31;;;9.30;87.83
5126;BME280;63008;53.112;8.896;2023-03-20T05:15:15;101656.91;;;9.25;87.96
5126;BME280;63008;53.112;8.896;2023-03-20T05:17:16;101650.81;;;9.28;88.30
5126;BME280;63008;53.112;8.896;2023-03-20T05:19:19;101662.19;;;9.35;87.92
5126;BME280;63008;53.112;8.896;2023-03-20T05:21:20;101661.88;;;9.36;87.79
5126;BME280;63008;53.112;8.896;2023-03-20T05:23:21;101662.78;;;9.32;87.98
5126;BME280;63008;53.112;8.896;2023-03-20T05:25:22;101660.66;;;9.29;88.13
5126;BME280;63008;53.112;8.896;2023-03-20T05:27:23;101659.75;;;9.33;88.05
5126;BME280;63008;53.112;8.896;2023-03-20T05:29:24;101653.47;;;9.33;88.00
5126;BME280;63008;53.112;8.896;2023-03-20T05:31:25;101652.63;;;9.32;87.72
5126;BME280;63008;53.112;8.896;2023-03-20T05:33:26;101660.84;;;9.32;87.93
5126;BME280;63008;53.112;8.896;2023-03-20T05:35:27;101652.84;;;9.36;87.81
5126;BME280;63008;53.112;8.896;2023-03-20T05:37:28;101659.75;;;9.33;87.82
5126;BME280;63008;53.112;8.896;2023-03-20T05:39:28;101660.97;;;9.41;87.41
5126;BME280;63008;53.112;8.896;2023-03-20T05:41:29;101663.19;;;9.39;87.82
5126;BME280;63008;53.112;8.896;2023-03-20T05:43:30;101671.91;;;9.41;87.73
5126;BME280;63008;53.112;8.896;2023-03-20T05:45:31;101672.44;;;9.43;87.58
5126;BME280;63008;53.112;8.896;2023-03-20T05:47:32;101674.06;;;9.44;87.44
5126;BME280;63008;53.112;8.896;2023-03-20T05:49:33;101670.50;;;9.43;87.61
5126;BME280;63008;53.112;8.896;2023-03-20T05:51:34;101676.28;;;9.42;87.56
5126;BME280;63008;53.112;8.896;2023-03-20T05:53:35;101672.75;;;9.41;87.56
5126;BME280;63008;53.112;8.896;2023-03-20T05:55:36;101677.09;;;9.42;87.61
5126;BME280;63008;53.112;8.896;2023-03-20T05:57:37;101677.22;;;9.37;88.15
5126;BME280;63008;53.112;8.896;2023-03-20T05:59:38;101677.00;;;9.47;89.13
5126;BME280;63008;53.112;8.896;2023-03-20T06:01:39;101683.81;;;9.50;88.49
5126;BME280;63008;53.112;8.896;2023-03-20T06:03:40;101692.03;;;9.50;87.92
5126;BME280;63008;53.112;8.896;2023-03-20T06:05:43;101687.16;;;9.47;87.92
5126;BME280;63008;53.112;8.896;2023-03-20T06:07:44;101691.13;;;9.54;87.40
5126;BME280;63008;53.112;8.896;2023-03-20T06:09:45;101678.13;;;9.46;87.61
5126;BME280;63008;53.112;8.896;2023-03-20T06:11:46;101682.47;;;9.47;87.95
5126;BME280;63008;53.112;8.896;2023-03-20T06:13:47;101684.59;;;9.50;87.75
5126;BME280;63008;53.112;8.896;2023-03-20T06:15:50;101686.16;;;9.56;87.38
5126;BME280;63008;53.112;8.896;2023-03-20T06:17:51;101691.53;;;9.61;87.13
5126;BME280;63008;53.112;8.896;2023-03-20T06:19:52;101689.19;;;9.55;87.50
5126;BME280;63008;53.112;8.896;2023-03-20T06:21:53;101693.66;;;9.51;87.02
5126;BME280;63008;53.112;8.896;2023-03-20T06:23:54;101690.41;;;9.49;87.28
5126;BME280;63008;53.112;8.896;2023-03-20T06:25:55;101684.09;;;9.48;87.12
5126;BME280;63008;53.112;8.896;2023-03-20T06:27:56;101687.94;;;9.47;87.02
5126;BME280;63008;53.112;8.896;2023-03-20T06:29:57;101691.41;;;9.53;87.17
5126;BME280;63008;53.112;8.896;2023-03-20T06:31:58;101683.50;;;9.51;86.69
5126;BME280;63008;53.112;8.896;2023-03-20T06:33:59;101696.28;;;9.56;86.32
5126;BME280;63008;53.112;8.896;2023-03-20T06:36:01;101684.53;;;9.55;85.88
5126;BME280;63008;53.112;8.896;2023-03-20T06:38:02;101691.91;;;9.55;85.54
5126;BME280;63008;53.112;8.896;2023-03-20T06:40:04;101691.41;;;9.53;85.56
5126;BME280;63008;53.112;8.896;2023-03-20T06:42:05;101688.56;;;9.58;84.77
5126;BME280;63008;53.112;8.896;2023-03-20T06:44:06;101690.63;;;9.52;84.83
5126;BME280;63008;53.112;8.896;2023-03-20T06:46:07;101698.34;;;9.64;85.49
5126;BME280;63008;53.112;8.896;2023-03-20T06:48:08;101697.31;;;9.73;84.83
5126;BME280;63008;53.112;8.896;2023-03-20T06:50:10;101698.31;;;9.77;84.51
5126;BME280;63008;53.112;8.896;2023-03-20T06:52:16;101696.88;;;9.66;83.64
5126;BME280;63008;53.112;8.896;2023-03-20T06:54:18;101709.28;;;9.64;82.42
5126;BME280;63008;53.112;8.896;2023-03-20T06:56:19;101708.06;;;9.56;83.02
5126;BME280;63008;53.112;8.896;2023-03-20T06:58:20;101699.63;;;9.66;82.31
5126;BME280;63008;53.112;8.896;2023-03-20T07:00:21;101712.75;;;9.69;81.88
5126;BME280;63008;53.112;8.896;2023-03-20T07:02:22;101710.59;;;9.66;81.39
5126;BME280;63008;53.112;8.896;2023-03-20T07:04:23;101718.25;;;9.69;80.13
5126;BME280;63008;53.112;8.896;2023-03-20T07:06:25;101717.00;;;9.75;79.63
5126;BME280;63008;53.112;8.896;2023-03-20T07:08:26;101718.53;;;9.68;79.70
5126;BME280;63008;53.112;8.896;2023-03-20T07:10:27;101717.00;;;9.75;79.26
5126;BME280;63008;53.112;8.896;2023-03-20T07:12:28;101719.75;;;9.75;79.30
5126;BME280;63008;53.112;8.896;2023-03-20T07:14:29;101712.31;;;9.76;79.40
5126;BME280;63008;53.112;8.896;2023-03-20T07:16:30;101711.53;;;9.75;79.22
5126;BME280;63008;53.112;8.896;2023-03-20T07:18:31;101718.63;;;9.76;79.18
5126;BME280;63008;53.112;8.896;2023-03-20T07:20:32;101723.59;;;9.88;78.54
5126;BME280;63008;53.112;8.896;2023-03-20T07:22:33;101725.13;;;9.80;78.23
5126;BME280;63008;53.112;8.896;2023-03-20T07:24:34;101719.03;;;9.70;78.77
5126;BME280;63008;53.112;8.896;2023-03-20T07:26:35;101720.25;;;9.77;77.93
5126;BME280;63008;53.112;8.896;2023-03-20T07:28:36;101719.13;;;9.78;77.63
5126;BME280;63008;53.112;8.896;2023-03-20T07:30:37;101722.38;;;9.80;77.83
5126;BME280;63008;53.112;8.896;2023-03-20T07:32:38;101717.50;;;9.77;77.69
5126;BME280;63008;53.112;8.896;2023-03-20T07:34:39;101720.47;;;9.81;77.51
5126;BME280;63008;53.112;8.896;2023-03-20T07:36:41;101732.22;;;9.81;76.94
5126;BME280;63008;53.112;8.896;2023-03-20T07:38:41;101726.56;;;9.78;76.76
5126;BME280;63008;53.112;8.896;2023-03-20T07:40:42;101727.53;;;9.68;76.83
5126;BME280;63008;53.112;8.896;2023-03-20T07:42:44;101730.38;;;9.63;77.32
5126;BME280;63008;53.112;8.896;2023-03-20T07:44:47;101738.63;;;9.77;76.75
5126;BME280;63008;53.112;8.896;2023-03-20T07:46:48;101736.09;;;9.80;76.86
5126;BME280;63008;53.112;8.896;2023-03-20T07:48:49;101734.16;;;9.81;76.19
5126;BME280;63008;53.112;8.896;2023-03-20T07:50:50;101745.31;;;9.84;76.14
5126;BME280;63008;53.112;8.896;2023-03-20T07:52:51;101738.94;;;9.75;75.72
5126;BME280;63008;53.112;8.896;2023-03-20T07:54:52;101734.88;;;9.73;76.29
5126;BME280;63008;53.112;8.896;2023-03-20T07:56:53;101739.22;;;9.74;76.08
5126;BME280;63008;53.112;8.896;2023-03-20T07:58:54;101734.69;;;9.83;75.46
5126;BME280;63008;53.112;8.896;2023-03-20T08:00:57;101736.69;;;9.77;75.31
5126;BME280;63008;53.112;8.896;2023-03-20T08:02:58;101737.41;;;9.83;74.79
5126;BME280;63008;53.112;8.896;2023-03-20T08:04:59;101743.31;;;9.76;74.76
5126;BME280;63008;53.112;8.896;2023-03-20T08:07:00;101745.94;;;9.81;74.66
5126;BME280;63008;53.112;8.896;2023-03-20T08:09:01;101743.50;;;9.80;74.64
5126;BME280;63008;53.112;8.896;2023-03-20T08:11:02;101746.03;;;9.76;74.63
5126;BME280;63008;53.112;8.896;2023-03-20T08:13:03;101738.22;;;9.83;74.41
5126;BME280;63008;53.112;8.896;2023-03-20T08:15:04;101742.19;;;9.77;74.21
5126;BME280;63008;53.112;8.896;2023-03-20T08:17:06;101737.53;;;9.78;74.33
5126;BME280;63008;53.112;8.896;2023-03-20T08:19:07;101741.78;;;9.84;74.16
5126;BME280;63008;53.112;8.896;2023-03-20T08:21:08;101741.06;;;9.92;73.61
5126;BME280;63008;53.112;8.896;2023-03-20T08:23:09;101739.34;;;9.96;73.96
5126;BME280;63008;53.112;8.896;2023-03-20T08:25:10;101743.41;;;9.98;73.23
5126;BME280;63008;53.112;8.896;2023-03-20T08:27:11;101744.00;;;9.95;73.21
5126;BME280;63008;53.112;8.896;2023-03-20T08:29:12;101754.00;;;10.05;72.84
5126;BME280;63008;53.112;8.896;2023-03-20T08:31:17;101753.06;;;9.96;72.85
5126;BME280;63008;53.112;8.896;2023-03-20T08:33:18;101756.22;;;10.03;72.57
5126;BME280;63008;53.112;8.896;2023-03-20T08:35:19;101760.31;;;10.05;72.91
5126;BME280;63008;53.112;8.896;2023-03-20T08:37:21;101762.94;;;10.10;73.00
5126;BME280;63008;53.112;8.896;2023-03-20T08:39:21;101764.94;;;10.18;72.57
5126;BME280;63008;53.112;8.896;2023-03-20T08:41:22;101764.66;;;10.06;72.72
5126;BME280;63008;53.112;8.896;2023-03-20T08:43:23;101761.44;;;10.04;72.92
5126;BME280;63008;53.112;8.896;2023-03-20T08:45:24;101763.84;;;10.06;73.48
5126;BME280;63008;53.112;8.896;2023-03-20T08:47:25;101759.88;;;10.12;73.12
5126;BME280;63008;53.112;8.896;2023-03-20T08:49:26;101767.41;;;10.06;72.96
5126;BME280;63008;53.112;8.896;2023-03-20T08:51:27;101761.59;;;10.08;72.56
5126;BME280;63008;53.112;8.896;2023-03-20T08:53:28;101761.59;;;10.08;72.84
5126;BME280;63008;53.112;8.896;2023-03-20T08:55:29;101754.59;;;10.15;72.29
5126;BME280;63008;53.112;8.896;2023-03-20T08:57:30;101758.97;;;10.16;71.31
5126;BME280;63008;53.112;8.896;2023-03-20T08:59:31;101762.81;;;10.15;71.41
5126;BME280;63008;53.112;8.896;2023-03-20T09:01:32;101759.88;;;10.12;71.74
5126;BME280;63008;53.112;8.896;2023-03-20T09:03:34;101758.56;;;10.23;71.90
5126;BME280;63008;53.112;8.896;2023-03-20T09:05:35;101759.03;;;10.38;71.49
5126;BME280;63008;53.112;8.896;2023-03-20T09:07:37;101769.41;;;10.41;70.05
5126;BME280;63008;53.112;8.896;2023-03-20T09:09:37;101756.53;;;10.28;70.27
5126;BME280;63008;53.112;8.896;2023-03-20T09:11:38;101741.47;;;10.26;70.13
5126;BME280;63008;53.112;8.896;2023-03-20T09:13:40;101746.16;;;10.25;69.85
5126;BME280;63008;53.112;8.896;2023-03-20T09:15:41;101743.91;;;10.27;70.48
5126;BME280;63008;53.112;8.896;2023-03-20T09:17:42;101741.47;;;10.39;70.25
5126;BME280;63008;53.112;8.896;2023-03-20T09:19:43;101750.59;;;10.48;70.06
5126;BME280;63008;53.112;8.896;2023-03-20T09:21:45;101743.34;;;10.52;68.77
5126;BME280;63008;53.112;8.896;2023-03-20T09:23:45;101762.25;;;10.54;68.03
5126;BME280;63008;53.112;8.896;2023-03-20T09:25:47;101756.06;;;10.48;68.21
5126;BME280;63008;53.112;8.896;2023-03-20T09:27:51;101755.16;;;10.53;68.36
5126;BME280;63008;53.112;8.896;2023-03-20T09:29:54;101756.97;;;10.57;68.02
5126;BME280;63008;53.112;8.896;2023-03-20T09:31:55;101748.75;;;10.57;67.52
5126;BME280;63008;53.112;8.896;2023-03-20T09:33:56;101753.50;;;10.65;67.72
5126;BME280;63008;53.112;8.896;2023-03-20T09:35:57;101758.28;;;10.60;67.23
5126;BME280;63008;53.112;8.896;2023-03-20T09:37:58;101750.75;;;10.65;67.52
5126;BME280;63008;53.112;8.896;2023-03-20T09:39:59;101762.09;;;10.72;67.39
5126;BME280;63008;53.112;8.896;2023-03-20T09:42:36;101757.81;;;10.80;67.04
5126;BME280;63008;53.112;8.896;2023-03-20T09:44:51;101759.19;;;10.69;67.09
5126;BME280;63008;53.112;8.896;2023-03-20T09:49:24;101749.97;;;10.51;67.67
5126;BME280;63008;53.112;8.896;2023-03-20T09:51:39;101759.09;;;10.60;67.67
5126;BME280;63008;53.112;8.896;2023-03-20T09:53:47;101750.00;;;10.73;66.45
5126;BME280;63008;53.112;8.896;2023-03-20T09:55:51;101752.13;;;10.76;66.23
5126;BME280;63008;53.112;8.896;2023-03-20T09:57:56;101749.34;;;10.89;65.79
5126;BME280;63008;53.112;8.896;2023-03-20T10:00:02;101765.63;;;10.86;66.08
5126;BME280;63008;53.112;8.896;2023-03-20T10:02:17;101764.25;;;10.75;65.69
5126;BME280;63008;53.112;8.896;2023-03-20T10:04:25;101760.38;;;10.76;65.69
5126;BME280;63008;53.112;8.896;2023-03-20T10:06:28;101757.81;;;10.80;65.06
5126;BME280;63008;53.112;8.896;2023-03-20T10:08:33;101754.69;;;10.94;65.29
5126;BME280;63008;53.112;8.896;2023-03-20T10:13:52;101753.84;;;11.07;65.31
5126;BME280;63008;53.112;8.896;2023-03-20T10:20:33;101735.66;;;10.98;64.85
5126;BME280;63008;53.112;8.896;2023-03-20T10:22:38;101738.56;;;10.93;64.57
5126;BME280;63008;53.112;8.896;2023-03-20T10:24:55;101741.53;;;11.05;64.66
5126;BME280;63008;53.112;8.896;2023-03-20T10:27:05;101740.41;;;11.06;63.99
5126;BME280;63008;53.112;8.896;2023-03-20T10:29:41;101737.03;;;10.87;64.54
5126;BME280;63008;53.112;8.896;2023-03-20T10:32:25;101749.28;;;11.03;64.24
5126;BME280;63008;53.112;8.896;2023-03-20T10:34:47;101742.84;;;11.07;64.48
5126;BME280;63008;53.112;8.896;2023-03-20T10:37:09;101734.84;;;10.97;63.77
5126;BME280;63008;53.112;8.896;2023-03-20T10:41:54;101742.13;;;11.24;62.75
5126;BME280;63008;53.112;8.896;2023-03-20T10:43:56;101736.53;;;11.07;62.67
5126;BME280;63008;53.112;8.896;2023-03-20T10:46:14;101726.03;;;11.09;63.74
5126;BME280;63008;53.112;8.896;2023-03-20T10:48:28;101732.47;;;11.26;62.83
5126;BME280;63008;53.112;8.896;2023-03-20T10:50:42;101745.47;;;11.12;61.42
5126;BME280;63008;53.112;8.896;2023-03-20T10:52:46;101740.72;;;11.04;62.62
5126;BME280;63008;53.112;8.896;2023-03-20T10:54:54;101739.59;;;11.05;62.46
5126;BME280;63008;53.112;8.896;2023-03-20T10:56:58;101736.03;;;11.05;61.93
5126;BME280;63008;53.112;8.896;2023-03-20T10:59:06;101721.13;;;11.19;62.10
5126;BME280;63008;53.112;8.896;2023-03-20T11:01:08;101715.19;;;11.34;61.40
5126;BME280;63008;53.112;8.896;2023-03-20T11:03:20;101708.38;;;11.54;61.52
5126;BME280;63008;53.112;8.896;2023-03-20T11:05:33;101713.44;;;11.60;60.96
5126;BME280;63008;53.112;8.896;2023-03-20T11:07:36;101716.38;;;11.64;61.02
5126;BME280;63008;53.112;8.896;2023-03-20T11:09:37;101714.38;;;11.56;60.55
5126;BME280;63008;53.112;8.896;2023-03-20T11:11:39;101707.59;;;11.62;60.84
5126;BME280;63008;53.112;8.896;2023-03-20T11:13:44;101716.41;;;11.72;60.73
5126;BME280;63008;53.112;8.896;2023-03-20T11:15:45;101714.75;;;11.63;59.98
5126;BME280;63008;53.112;8.896;2023-03-20T11:18:09;101711.88;;;11.76;59.33
5126;BME280;63008;53.112;8.896;2023-03-20T11:20:13;101706.25;;;11.81;59.51
5126;BME280;63008;53.112;8.896;2023-03-20T11:22:24;101701.69;;;12.24;59.35
5126;BME280;63008;53.112;8.896;2023-03-20T11:24:50;101698.59;;;12.34;58.36
5126;BME280;63008;53.112;8.896;2023-03-20T11:26:53;101695.38;;;12.58;58.18
5126;BME280;63008;53.112;8.896;2023-03-20T11:29:30;101694.72;;;12.77;58.37
5126;BME280;63008;53.112;8.896;2023-03-20T11:31:36;101690.66;;;12.75;58.14
5126;BME280;63008;53.112;8.896;2023-03-20T11:33:59;101697.97;;;12.79;57.34